KHTS/HTS METAR and TAF weather

Enter ICAO airport designator
Station Type Date Time Source
KHTS METAR 2019/05/26 23:07 UTC NOAA

KHTS 262307Z 25011G23KT 2SM VCTS RA SCT055 BKN070 OVC090 22/19 A3004 RMK AO2 PK WND 26026/2256 P0005 T02220189


Station Type Date Time Source
KHTS Decoded METAR 2019/05/26 23:07 UTC NOAA

TRI-STATE AIRPORT, WV, United States (KHTS) 38-22N 082-33W 254M
May 26, 2019 - 07:07 PM EDT / 2019.05.26 2307 UTC
Wind: from the WSW (250 degrees) at 13 MPH (11 KT) gusting to 26 MPH (23 KT):0
Visibility: 2 mile(s):0
Sky conditions: overcast
Weather: thunder in the vicinity; rain
Precipitation last hour: 0.05 inches
Temperature: 72.0 F (22.2 C)
Dew Point: 66.0 F (18.9 C)
Relative Humidity: 81%
Pressure (altimeter): 30.04 in. Hg (1017 hPa)
ob: KHTS 262307Z 25011G23KT 2SM VCTS RA SCT055 BKN070 OVC090 22/19 A3004 RMK AO2 PK WND 26026/2256 P0005 T02220189
cycle: 23

Station Type Date Time Source
KHTS TAF 2019/05/26 18:03 UTC NOAA

TAF KHTS 261800Z 2618/2718 25009G15KT P6SM VCTS BKN040CB
TEMPO 2619/2623 4SM -SHRA BR OVC025
FM270200 00000KT P6SM BKN040
FM271200 00000KT 6SM BR BKN012
FM271300 VRB03KT P6SM SCT025

Example: see airport list